sensor_id;sensor_type;location;lat;lon;timestamp;P1;durP1;ratioP1;P2;durP2;ratioP2
6117;SDS011;3089;48.202;11.510;2024-03-08T00:00:14;13.60;;;7.07;;
6117;SDS011;3089;48.202;11.510;2024-03-08T00:02:46;19.97;;;8.00;;
6117;SDS011;3089;48.202;11.510;2024-03-08T00:05:17;14.77;;;8.00;;
6117;SDS011;3089;48.202;11.510;2024-03-08T00:07:45;15.30;;;8.40;;
6117;SDS011;3089;48.202;11.510;2024-03-08T00:10:13;15.40;;;7.00;;
6117;SDS011;3089;48.202;11.510;2024-03-08T00:12:44;15.00;;;8.10;;
6117;SDS011;3089;48.202;11.510;2024-03-08T00:15:14;16.50;;;7.93;;
6117;SDS011;3089;48.202;11.510;2024-03-08T00:17:45;15.77;;;8.23;;
6117;SDS011;3089;48.202;11.510;2024-03-08T00:20:14;18.53;;;8.40;;
6117;SDS011;3089;48.202;11.510;2024-03-08T00:22:45;15.03;;;7.57;;
6117;SDS011;3089;48.202;11.510;2024-03-08T00:25:13;13.20;;;7.23;;
6117;SDS011;3089;48.202;11.510;2024-03-08T00:27:42;15.80;;;7.03;;
6117;SDS011;3089;48.202;11.510;2024-03-08T00:30:12;13.80;;;6.90;;
6117;SDS011;3089;48.202;11.510;2024-03-08T00:32:40;16.53;;;7.77;;
6117;SDS011;3089;48.202;11.510;2024-03-08T00:35:09;15.23;;;8.10;;
6117;SDS011;3089;48.202;11.510;2024-03-08T00:37:38;15.70;;;8.93;;
6117;SDS011;3089;48.202;11.510;2024-03-08T00:40:07;15.40;;;8.50;;
6117;SDS011;3089;48.202;11.510;2024-03-08T00:42:36;14.80;;;7.67;;
6117;SDS011;3089;48.202;11.510;2024-03-08T00:45:06;16.20;;;8.60;;
6117;SDS011;3089;48.202;11.510;2024-03-08T00:47:38;13.87;;;7.30;;
6117;SDS011;3089;48.202;11.510;2024-03-08T00:50:06;15.60;;;8.03;;
6117;SDS011;3089;48.202;11.510;2024-03-08T00:52:36;17.50;;;8.83;;
6117;SDS011;3089;48.202;11.510;2024-03-08T00:55:04;15.90;;;8.10;;
6117;SDS011;3089;48.202;11.510;2024-03-08T00:57:34;16.80;;;9.33;;
6117;SDS011;3089;48.202;11.510;2024-03-08T01:00:02;15.90;;;7.40;;
6117;SDS011;3089;48.202;11.510;2024-03-08T01:02:33;15.57;;;8.90;;
6117;SDS011;3089;48.202;11.510;2024-03-08T01:05:03;19.33;;;9.10;;
6117;SDS011;3089;48.202;11.510;2024-03-08T01:07:33;15.43;;;7.37;;
6117;SDS011;3089;48.202;11.510;2024-03-08T01:10:02;16.63;;;7.87;;
6117;SDS011;3089;48.202;11.510;2024-03-08T01:12:30;18.50;;;8.77;;
6117;SDS011;3089;48.202;11.510;2024-03-08T01:14:58;15.93;;;7.90;;
6117;SDS011;3089;48.202;11.510;2024-03-08T01:17:27;17.10;;;7.57;;
6117;SDS011;3089;48.202;11.510;2024-03-08T01:19:55;15.60;;;7.40;;
6117;SDS011;3089;48.202;11.510;2024-03-08T01:22:24;17.30;;;9.10;;
6117;SDS011;3089;48.202;11.510;2024-03-08T01:24:54;14.87;;;7.90;;
6117;SDS011;3089;48.202;11.510;2024-03-08T01:27:22;14.57;;;7.13;;
6117;SDS011;3089;48.202;11.510;2024-03-08T01:29:51;15.93;;;7.40;;
6117;SDS011;3089;48.202;11.510;2024-03-08T01:32:19;15.67;;;8.17;;
6117;SDS011;3089;48.202;11.510;2024-03-08T01:34:49;15.73;;;8.20;;
6117;SDS011;3089;48.202;11.510;2024-03-08T01:37:17;15.63;;;8.20;;
6117;SDS011;3089;48.202;11.510;2024-03-08T01:39:47;14.40;;;7.60;;
6117;SDS011;3089;48.202;11.510;2024-03-08T01:42:15;16.97;;;7.50;;
6117;SDS011;3089;48.202;11.510;2024-03-08T01:44:44;16.70;;;7.10;;
6117;SDS011;3089;48.202;11.510;2024-03-08T01:47:12;16.23;;;8.40;;
6117;SDS011;3089;48.202;11.510;2024-03-08T01:49:40;16.20;;;8.23;;
6117;SDS011;3089;48.202;11.510;2024-03-08T01:52:08;18.90;;;9.60;;
6117;SDS011;3089;48.202;11.510;2024-03-08T01:54:37;16.70;;;8.20;;
6117;SDS011;3089;48.202;11.510;2024-03-08T01:57:08;16.60;;;9.27;;
6117;SDS011;3089;48.202;11.510;2024-03-08T01:59:37;17.30;;;8.67;;
6117;SDS011;3089;48.202;11.510;2024-03-08T02:02:07;16.70;;;9.00;;
6117;SDS011;3089;48.202;11.510;2024-03-08T02:04:39;15.20;;;8.13;;
6117;SDS011;3089;48.202;11.510;2024-03-08T02:07:07;16.50;;;7.60;;
6117;SDS011;3089;48.202;11.510;2024-03-08T02:09:36;15.90;;;8.57;;
6117;SDS011;3089;48.202;11.510;2024-03-08T02:12:05;18.83;;;8.23;;
6117;SDS011;3089;48.202;11.510;2024-03-08T02:14:36;16.70;;;7.73;;
6117;SDS011;3089;48.202;11.510;2024-03-08T02:17:04;18.97;;;8.30;;
6117;SDS011;3089;48.202;11.510;2024-03-08T02:19:32;15.20;;;8.00;;
6117;SDS011;3089;48.202;11.510;2024-03-08T02:22:03;15.07;;;8.23;;
6117;SDS011;3089;48.202;11.510;2024-03-08T02:24:32;19.60;;;9.30;;
6117;SDS011;3089;48.202;11.510;2024-03-08T02:27:01;21.70;;;8.70;;
6117;SDS011;3089;48.202;11.510;2024-03-08T02:29:29;19.30;;;9.13;;
6117;SDS011;3089;48.202;11.510;2024-03-08T02:31:58;16.80;;;8.50;;
6117;SDS011;3089;48.202;11.510;2024-03-08T02:34:26;18.70;;;9.90;;
6117;SDS011;3089;48.202;11.510;2024-03-08T02:36:55;17.60;;;8.67;;
6117;SDS011;3089;48.202;11.510;2024-03-08T02:39:25;15.43;;;7.67;;
6117;SDS011;3089;48.202;11.510;2024-03-08T02:41:52;17.17;;;8.63;;
6117;SDS011;3089;48.202;11.510;2024-03-08T02:44:20;17.70;;;8.77;;
6117;SDS011;3089;48.202;11.510;2024-03-08T02:46:48;17.67;;;8.40;;
6117;SDS011;3089;48.202;11.510;2024-03-08T02:49:17;17.73;;;8.63;;
6117;SDS011;3089;48.202;11.510;2024-03-08T02:51:45;18.47;;;8.30;;
6117;SDS011;3089;48.202;11.510;2024-03-08T02:54:13;15.30;;;7.37;;
6117;SDS011;3089;48.202;11.510;2024-03-08T02:56:45;15.60;;;8.97;;
6117;SDS011;3089;48.202;11.510;2024-03-08T02:59:13;22.90;;;9.57;;
6117;SDS011;3089;48.202;11.510;2024-03-08T03:01:43;18.90;;;8.90;;
6117;SDS011;3089;48.202;11.510;2024-03-08T03:04:11;18.30;;;9.70;;
6117;SDS011;3089;48.202;11.510;2024-03-08T03:06:40;19.60;;;9.20;;
6117;SDS011;3089;48.202;11.510;2024-03-08T03:09:08;20.10;;;9.43;;
6117;SDS011;3089;48.202;11.510;2024-03-08T03:11:36;18.63;;;9.00;;
6117;SDS011;3089;48.202;11.510;2024-03-08T03:14:06;18.70;;;8.63;;
6117;SDS011;3089;48.202;11.510;2024-03-08T03:16:35;19.03;;;9.50;;
6117;SDS011;3089;48.202;11.510;2024-03-08T03:19:03;17.13;;;8.80;;
6117;SDS011;3089;48.202;11.510;2024-03-08T03:21:31;15.03;;;8.57;;
6117;SDS011;3089;48.202;11.510;2024-03-08T03:24:02;18.37;;;8.20;;
6117;SDS011;3089;48.202;11.510;2024-03-08T03:26:30;21.90;;;9.60;;
6117;SDS011;3089;48.202;11.510;2024-03-08T03:28:58;18.27;;;8.33;;
6117;SDS011;3089;48.202;11.510;2024-03-08T03:31:30;17.13;;;8.53;;
6117;SDS011;3089;48.202;11.510;2024-03-08T03:33:58;16.87;;;9.13;;
6117;SDS011;3089;48.202;11.510;2024-03-08T03:36:29;21.43;;;9.20;;
6117;SDS011;3089;48.202;11.510;2024-03-08T03:38:57;16.60;;;8.63;;
6117;SDS011;3089;48.202;11.510;2024-03-08T03:41:36;17.33;;;9.30;;
6117;SDS011;3089;48.202;11.510;2024-03-08T03:44:05;20.33;;;10.13;;
6117;SDS011;3089;48.202;11.510;2024-03-08T03:46:34;18.70;;;9.50;;
6117;SDS011;3089;48.202;11.510;2024-03-08T03:49:03;19.77;;;9.03;;
6117;SDS011;3089;48.202;11.510;2024-03-08T03:51:31;16.17;;;8.57;;
6117;SDS011;3089;48.202;11.510;2024-03-08T03:53:59;19.83;;;9.57;;
6117;SDS011;3089;48.202;11.510;2024-03-08T03:56:29;19.93;;;10.27;;
6117;SDS011;3089;48.202;11.510;2024-03-08T03:58:58;21.37;;;9.47;;
6117;SDS011;3089;48.202;11.510;2024-03-08T04:01:26;19.47;;;8.43;;
6117;SDS011;3089;48.202;11.510;2024-03-08T04:03:57;19.03;;;9.07;;
6117;SDS011;3089;48.202;11.510;2024-03-08T04:06:25;17.30;;;9.10;;
6117;SDS011;3089;48.202;11.510;2024-03-08T04:08:53;21.67;;;10.80;;
6117;SDS011;3089;48.202;11.510;2024-03-08T04:11:21;18.60;;;9.40;;
6117;SDS011;3089;48.202;11.510;2024-03-08T04:13:49;23.53;;;8.70;;
6117;SDS011;3089;48.202;11.510;2024-03-08T04:16:18;19.20;;;9.13;;
6117;SDS011;3089;48.202;11.510;2024-03-08T04:18:47;18.70;;;8.50;;
6117;SDS011;3089;48.202;11.510;2024-03-08T04:21:16;20.50;;;9.20;;
6117;SDS011;3089;48.202;11.510;2024-03-08T04:23:45;19.93;;;9.73;;
6117;SDS011;3089;48.202;11.510;2024-03-08T04:26:13;22.70;;;11.10;;
6117;SDS011;3089;48.202;11.510;2024-03-08T04:28:44;18.37;;;9.43;;
6117;SDS011;3089;48.202;11.510;2024-03-08T04:31:13;22.60;;;12.37;;
6117;SDS011;3089;48.202;11.510;2024-03-08T04:33:41;27.87;;;14.33;;
6117;SDS011;3089;48.202;11.510;2024-03-08T04:36:11;23.50;;;13.03;;
6117;SDS011;3089;48.202;11.510;2024-03-08T04:38:41;24.27;;;14.60;;
6117;SDS011;3089;48.202;11.510;2024-03-08T04:41:09;24.43;;;11.90;;
6117;SDS011;3089;48.202;11.510;2024-03-08T04:43:37;22.33;;;11.43;;
6117;SDS011;3089;48.202;11.510;2024-03-08T04:46:06;18.20;;;10.77;;
6117;SDS011;3089;48.202;11.510;2024-03-08T04:48:34;21.83;;;10.63;;
6117;SDS011;3089;48.202;11.510;2024-03-08T04:51:03;25.77;;;11.57;;
6117;SDS011;3089;48.202;11.510;2024-03-08T04:53:32;25.17;;;10.80;;
6117;SDS011;3089;48.202;11.510;2024-03-08T04:56:02;20.97;;;10.60;;
6117;SDS011;3089;48.202;11.510;2024-03-08T04:58:32;23.43;;;11.40;;
6117;SDS011;3089;48.202;11.510;2024-03-08T05:01:00;27.73;;;13.23;;
6117;SDS011;3089;48.202;11.510;2024-03-08T05:03:29;19.03;;;11.23;;
6117;SDS011;3089;48.202;11.510;2024-03-08T05:05:57;23.97;;;11.97;;
6117;SDS011;3089;48.202;11.510;2024-03-08T05:08:25;22.37;;;12.07;;
6117;SDS011;3089;48.202;11.510;2024-03-08T05:10:53;26.43;;;11.53;;
6117;SDS011;3089;48.202;11.510;2024-03-08T05:13:24;24.77;;;12.50;;
6117;SDS011;3089;48.202;11.510;2024-03-08T05:15:53;23.27;;;11.00;;
6117;SDS011;3089;48.202;11.510;2024-03-08T05:18:24;26.23;;;13.27;;
6117;SDS011;3089;48.202;11.510;2024-03-08T05:20:54;23.93;;;12.77;;
6117;SDS011;3089;48.202;11.510;2024-03-08T05:23:22;27.10;;;12.97;;
6117;SDS011;3089;48.202;11.510;2024-03-08T05:25:50;25.20;;;12.43;;
6117;SDS011;3089;48.202;11.510;2024-03-08T05:28:18;26.33;;;11.23;;
6117;SDS011;3089;48.202;11.510;2024-03-08T05:30:48;25.27;;;13.03;;
6117;SDS011;3089;48.202;11.510;2024-03-08T05:33:16;26.80;;;14.40;;
6117;SDS011;3089;48.202;11.510;2024-03-08T05:35:45;26.30;;;13.97;;
6117;SDS011;3089;48.202;11.510;2024-03-08T05:38:14;28.17;;;14.53;;
6117;SDS011;3089;48.202;11.510;2024-03-08T05:40:42;33.47;;;14.80;;
6117;SDS011;3089;48.202;11.510;2024-03-08T05:43:10;29.23;;;13.47;;
6117;SDS011;3089;48.202;11.510;2024-03-08T05:45:38;31.80;;;13.47;;
6117;SDS011;3089;48.202;11.510;2024-03-08T05:48:08;30.17;;;14.63;;
6117;SDS011;3089;48.202;11.510;2024-03-08T05:50:37;28.57;;;14.80;;
6117;SDS011;3089;48.202;11.510;2024-03-08T05:53:05;35.17;;;17.70;;
6117;SDS011;3089;48.202;11.510;2024-03-08T05:55:34;34.30;;;13.80;;
6117;SDS011;3089;48.202;11.510;2024-03-08T05:58:02;36.07;;;19.50;;
6117;SDS011;3089;48.202;11.510;2024-03-08T06:00:30;40.73;;;15.67;;
6117;SDS011;3089;48.202;11.510;2024-03-08T06:02:58;36.50;;;14.60;;
6117;SDS011;3089;48.202;11.510;2024-03-08T06:05:28;36.43;;;17.00;;
6117;SDS011;3089;48.202;11.510;2024-03-08T06:07:56;32.70;;;15.30;;
6117;SDS011;3089;48.202;11.510;2024-03-08T06:10:24;34.03;;;15.83;;
6117;SDS011;3089;48.202;11.510;2024-03-08T06:12:53;38.17;;;16.50;;
6117;SDS011;3089;48.202;11.510;2024-03-08T06:15:21;37.27;;;15.40;;
6117;SDS011;3089;48.202;11.510;2024-03-08T06:17:50;35.33;;;14.97;;
6117;SDS011;3089;48.202;11.510;2024-03-08T06:20:19;37.07;;;15.70;;
6117;SDS011;3089;48.202;11.510;2024-03-08T06:22:53;35.40;;;16.40;;
6117;SDS011;3089;48.202;11.510;2024-03-08T06:25:21;31.60;;;13.67;;
6117;SDS011;3089;48.202;11.510;2024-03-08T06:27:49;31.17;;;14.83;;
6117;SDS011;3089;48.202;11.510;2024-03-08T06:30:19;31.60;;;16.48;;
6117;SDS011;3089;48.202;11.510;2024-03-08T06:32:48;28.17;;;13.57;;
6117;SDS011;3089;48.202;11.510;2024-03-08T06:35:16;30.23;;;15.13;;
6117;SDS011;3089;48.202;11.510;2024-03-08T06:37:46;27.73;;;13.23;;
6117;SDS011;3089;48.202;11.510;2024-03-08T06:40:16;32.73;;;14.83;;
6117;SDS011;3089;48.202;11.510;2024-03-08T06:42:44;31.70;;;14.60;;
6117;SDS011;3089;48.202;11.510;2024-03-08T06:45:13;30.70;;;16.10;;
6117;SDS011;3089;48.202;11.510;2024-03-08T06:47:45;27.23;;;12.87;;
6117;SDS011;3089;48.202;11.510;2024-03-08T06:50:14;36.27;;;16.37;;
6117;SDS011;3089;48.202;11.510;2024-03-08T06:52:42;34.97;;;14.57;;
6117;SDS011;3089;48.202;11.510;2024-03-08T06:55:12;32.87;;;15.40;;
6117;SDS011;3089;48.202;11.510;2024-03-08T06:57:42;32.90;;;13.80;;
6117;SDS011;3089;48.202;11.510;2024-03-08T07:00:10;32.53;;;13.80;;
6117;SDS011;3089;48.202;11.510;2024-03-08T07:02:40;28.03;;;13.20;;
6117;SDS011;3089;48.202;11.510;2024-03-08T07:05:08;29.60;;;13.50;;
6117;SDS011;3089;48.202;11.510;2024-03-08T07:07:37;25.20;;;11.90;;
6117;SDS011;3089;48.202;11.510;2024-03-08T07:10:08;10.53;;;4.93;;
6117;SDS011;3089;48.202;11.510;2024-03-08T07:12:37;30.20;;;13.90;;
6117;SDS011;3089;48.202;11.510;2024-03-08T07:15:07;30.77;;;12.87;;
6117;SDS011;3089;48.202;11.510;2024-03-08T07:17:39;28.93;;;13.83;;
6117;SDS011;3089;48.202;11.510;2024-03-08T07:20:08;31.23;;;14.83;;
6117;SDS011;3089;48.202;11.510;2024-03-08T07:22:39;31.07;;;13.83;;
6117;SDS011;3089;48.202;11.510;2024-03-08T07:25:12;33.30;;;15.47;;
6117;SDS011;3089;48.202;11.510;2024-03-08T07:27:50;29.70;;;14.97;;
6117;SDS011;3089;48.202;11.510;2024-03-08T07:30:22;23.27;;;12.20;;
6117;SDS011;3089;48.202;11.510;2024-03-08T07:33:09;33.80;;;15.30;;
6117;SDS011;3089;48.202;11.510;2024-03-08T07:35:40;32.47;;;15.60;;
6117;SDS011;3089;48.202;11.510;2024-03-08T07:38:10;30.70;;;16.20;;
6117;SDS011;3089;48.202;11.510;2024-03-08T07:40:39;28.97;;;15.87;;
6117;SDS011;3089;48.202;11.510;2024-03-08T07:43:11;30.80;;;16.20;;
6117;SDS011;3089;48.202;11.510;2024-03-08T07:45:40;29.17;;;13.10;;
6117;SDS011;3089;48.202;11.510;2024-03-08T07:48:08;32.23;;;13.20;;
6117;SDS011;3089;48.202;11.510;2024-03-08T07:50:37;27.03;;;14.17;;
6117;SDS011;3089;48.202;11.510;2024-03-08T07:53:06;27.70;;;12.83;;
6117;SDS011;3089;48.202;11.510;2024-03-08T07:55:36;25.77;;;11.00;;
6117;SDS011;3089;48.202;11.510;2024-03-08T07:58:06;28.00;;;12.97;;
6117;SDS011;3089;48.202;11.510;2024-03-08T08:00:35;32.10;;;15.03;;
6117;SDS011;3089;48.202;11.510;2024-03-08T08:03:05;29.00;;;15.90;;
6117;SDS011;3089;48.202;11.510;2024-03-08T08:05:34;30.93;;;15.67;;
6117;SDS011;3089;48.202;11.510;2024-03-08T08:08:04;30.27;;;14.30;;
6117;SDS011;3089;48.202;11.510;2024-03-08T08:10:36;23.80;;;12.40;;
6117;SDS011;3089;48.202;11.510;2024-03-08T08:13:04;31.00;;;15.50;;
6117;SDS011;3089;48.202;11.510;2024-03-08T08:15:32;27.87;;;14.40;;
6117;SDS011;3089;48.202;11.510;2024-03-08T08:18:00;30.70;;;15.67;;
6117;SDS011;3089;48.202;11.510;2024-03-08T08:20:33;34.20;;;15.93;;
6117;SDS011;3089;48.202;11.510;2024-03-08T08:23:01;30.57;;;15.10;;
6117;SDS011;3089;48.202;11.510;2024-03-08T08:25:29;33.73;;;15.50;;
6117;SDS011;3089;48.202;11.510;2024-03-08T08:28:01;31.07;;;15.47;;
6117;SDS011;3089;48.202;11.510;2024-03-08T08:30:30;31.47;;;15.10;;
6117;SDS011;3089;48.202;11.510;2024-03-08T08:33:00;29.30;;;15.50;;
6117;SDS011;3089;48.202;11.510;2024-03-08T08:35:28;30.97;;;14.10;;
6117;SDS011;3089;48.202;11.510;2024-03-08T08:37:58;32.40;;;14.17;;
6117;SDS011;3089;48.202;11.510;2024-03-08T08:40:26;26.20;;;14.20;;
6117;SDS011;3089;48.202;11.510;2024-03-08T08:42:56;29.13;;;15.00;;
6117;SDS011;3089;48.202;11.510;2024-03-08T08:45:25;33.03;;;13.57;;
6117;SDS011;3089;48.202;11.510;2024-03-08T08:47:53;27.17;;;13.20;;
6117;SDS011;3089;48.202;11.510;2024-03-08T08:50:22;27.47;;;13.77;;
6117;SDS011;3089;48.202;11.510;2024-03-08T08:52:51;32.77;;;14.70;;
6117;SDS011;3089;48.202;11.510;2024-03-08T08:55:21;34.03;;;13.67;;
6117;SDS011;3089;48.202;11.510;2024-03-08T08:57:52;27.00;;;13.17;;
6117;SDS011;3089;48.202;11.510;2024-03-08T09:00:22;36.13;;;14.43;;
6117;SDS011;3089;48.202;11.510;2024-03-08T09:02:54;30.60;;;14.90;;
6117;SDS011;3089;48.202;11.510;2024-03-08T09:05:24;30.70;;;17.17;;
6117;SDS011;3089;48.202;11.510;2024-03-08T09:07:53;28.47;;;14.87;;
6117;SDS011;3089;48.202;11.510;2024-03-08T09:10:22;30.07;;;15.90;;
6117;SDS011;3089;48.202;11.510;2024-03-08T09:12:56;35.30;;;15.23;;
6117;SDS011;3089;48.202;11.510;2024-03-08T09:15:26;26.47;;;13.80;;
6117;SDS011;3089;48.202;11.510;2024-03-08T09:17:55;28.87;;;13.27;;
6117;SDS011;3089;48.202;11.510;2024-03-08T09:20:25;28.07;;;14.00;;
6117;SDS011;3089;48.202;11.510;2024-03-08T09:22:53;29.23;;;14.80;;
6117;SDS011;3089;48.202;11.510;2024-03-08T09:25:23;28.67;;;13.57;;
6117;SDS011;3089;48.202;11.510;2024-03-08T09:27:51;34.80;;;17.20;;
6117;SDS011;3089;48.202;11.510;2024-03-08T09:30:20;28.70;;;14.93;;
6117;SDS011;3089;48.202;11.510;2024-03-08T09:32:48;29.43;;;15.50;;
6117;SDS011;3089;48.202;11.510;2024-03-08T09:35:18;31.10;;;14.33;;
6117;SDS011;3089;48.202;11.510;2024-03-08T09:37:46;28.00;;;13.40;;
6117;SDS011;3089;48.202;11.510;2024-03-08T09:40:18;28.67;;;12.73;;
6117;SDS011;3089;48.202;11.510;2024-03-08T09:42:48;33.80;;;15.10;;
6117;SDS011;3089;48.202;11.510;2024-03-08T09:45:17;27.67;;;13.57;;
6117;SDS011;3089;48.202;11.510;2024-03-08T09:47:48;33.63;;;16.43;;
6117;SDS011;3089;48.202;11.510;2024-03-08T09:50:16;33.03;;;14.23;;
6117;SDS011;3089;48.202;11.510;2024-03-08T09:52:46;33.33;;;17.33;;
6117;SDS011;3089;48.202;11.510;2024-03-08T09:55:17;26.30;;;13.97;;
6117;SDS011;3089;48.202;11.510;2024-03-08T09:57:50;32.80;;;13.30;;
6117;SDS011;3089;48.202;11.510;2024-03-08T10:00:37;30.83;;;16.77;;
6117;SDS011;3089;48.202;11.510;2024-03-08T10:03:05;28.13;;;14.77;;
6117;SDS011;3089;48.202;11.510;2024-03-08T10:05:33;29.47;;;12.80;;
6117;SDS011;3089;48.202;11.510;2024-03-08T10:08:01;30.20;;;13.30;;
6117;SDS011;3089;48.202;11.510;2024-03-08T10:10:31;24.57;;;13.37;;
6117;SDS011;3089;48.202;11.510;2024-03-08T10:13:02;31.17;;;12.47;;
6117;SDS011;3089;48.202;11.510;2024-03-08T10:15:32;29.53;;;14.80;;
6117;SDS011;3089;48.202;11.510;2024-03-08T10:18:01;25.73;;;13.53;;
6117;SDS011;3089;48.202;11.510;2024-03-08T10:20:29;24.13;;;12.67;;
6117;SDS011;3089;48.202;11.510;2024-03-08T10:22:59;20.13;;;8.50;;
6117;SDS011;3089;48.202;11.510;2024-03-08T10:25:37;25.40;;;11.80;;
6117;SDS011;3089;48.202;11.510;2024-03-08T10:28:07;24.37;;;11.50;;
6117;SDS011;3089;48.202;11.510;2024-03-08T10:30:35;22.10;;;11.10;;
6117;SDS011;3089;48.202;11.510;2024-03-08T10:33:04;23.60;;;12.03;;
6117;SDS011;3089;48.202;11.510;2024-03-08T10:35:33;26.27;;;12.93;;
6117;SDS011;3089;48.202;11.510;2024-03-08T10:38:01;21.77;;;11.77;;
6117;SDS011;3089;48.202;11.510;2024-03-08T10:40:35;29.17;;;14.13;;
6117;SDS011;3089;48.202;11.510;2024-03-08T10:43:10;27.93;;;13.23;;
6117;SDS011;3089;48.202;11.510;2024-03-08T10:45:46;22.20;;;12.20;;
6117;SDS011;3089;48.202;11.510;2024-03-08T10:48:23;21.23;;;11.07;;
6117;SDS011;3089;48.202;11.510;2024-03-08T10:51:02;22.90;;;13.20;;
6117;SDS011;3089;48.202;11.510;2024-03-08T10:53:31;20.17;;;11.37;;
6117;SDS011;3089;48.202;11.510;2024-03-08T10:56:03;23.70;;;11.53;;
6117;SDS011;3089;48.202;11.510;2024-03-08T10:58:35;26.60;;;14.43;;
6117;SDS011;3089;48.202;11.510;2024-03-08T11:01:04;26.53;;;13.73;;
6117;SDS011;3089;48.202;11.510;2024-03-08T11:03:46;24.40;;;13.90;;
6117;SDS011;3089;48.202;11.510;2024-03-08T11:06:22;22.87;;;10.93;;
6117;SDS011;3089;48.202;11.510;2024-03-08T11:08:58;20.10;;;10.50;;
6117;SDS011;3089;48.202;11.510;2024-03-08T11:11:27;23.57;;;11.43;;
6117;SDS011;3089;48.202;11.510;2024-03-08T11:14:02;22.60;;;13.03;;
6117;SDS011;3089;48.202;11.510;2024-03-08T11:16:37;23.73;;;13.27;;
6117;SDS011;3089;48.202;11.510;2024-03-08T11:19:25;21.20;;;10.70;;
6117;SDS011;3089;48.202;11.510;2024-03-08T11:21:58;20.83;;;12.50;;
6117;SDS011;3089;48.202;11.510;2024-03-08T11:24:27;20.47;;;10.43;;
6117;SDS011;3089;48.202;11.510;2024-03-08T11:26:56;22.30;;;12.63;;
6117;SDS011;3089;48.202;11.510;2024-03-08T11:29:34;21.17;;;11.40;;
6117;SDS011;3089;48.202;11.510;2024-03-08T11:32:07;19.23;;;11.67;;
6117;SDS011;3089;48.202;11.510;2024-03-08T11:34:36;28.10;;;13.47;;
6117;SDS011;3089;48.202;11.510;2024-03-08T11:37:05;19.20;;;10.63;;
6117;SDS011;3089;48.202;11.510;2024-03-08T11:39:39;17.83;;;9.90;;
6117;SDS011;3089;48.202;11.510;2024-03-08T11:42:07;20.20;;;11.00;;
6117;SDS011;3089;48.202;11.510;2024-03-08T11:44:39;17.57;;;10.90;;
6117;SDS011;3089;48.202;11.510;2024-03-08T11:47:10;18.77;;;10.93;;
6117;SDS011;3089;48.202;11.510;2024-03-08T11:49:39;19.47;;;10.57;;
6117;SDS011;3089;48.202;11.510;2024-03-08T11:52:10;18.47;;;10.50;;
6117;SDS011;3089;48.202;11.510;2024-03-08T11:54:40;20.23;;;10.43;;
6117;SDS011;3089;48.202;11.510;2024-03-08T11:57:09;19.20;;;10.00;;
6117;SDS011;3089;48.202;11.510;2024-03-08T11:59:40;18.03;;;10.63;;
6117;SDS011;3089;48.202;11.510;2024-03-08T12:02:08;18.50;;;10.07;;
6117;SDS011;3089;48.202;11.510;2024-03-08T12:04:37;23.47;;;11.73;;
6117;SDS011;3089;48.202;11.510;2024-03-08T12:07:09;16.07;;;9.17;;
6117;SDS011;3089;48.202;11.510;2024-03-08T12:09:39;32.43;;;9.73;;
6117;SDS011;3089;48.202;11.510;2024-03-08T12:12:12;21.13;;;11.40;;
6117;SDS011;3089;48.202;11.510;2024-03-08T12:14:43;24.20;;;12.83;;
6117;SDS011;3089;48.202;11.510;2024-03-08T12:17:12;20.40;;;11.00;;
6117;SDS011;3089;48.202;11.510;2024-03-08T12:19:40;23.50;;;12.93;;
6117;SDS011;3089;48.202;11.510;2024-03-08T12:22:14;20.43;;;11.07;;
6117;SDS011;3089;48.202;11.510;2024-03-08T12:24:43;19.80;;;10.67;;
6117;SDS011;3089;48.202;11.510;2024-03-08T12:27:17;17.27;;;10.03;;
6117;SDS011;3089;48.202;11.510;2024-03-08T12:29:47;19.45;;;11.02;;
6117;SDS011;3089;48.202;11.510;2024-03-08T12:32:17;20.27;;;9.80;;
6117;SDS011;3089;48.202;11.510;2024-03-08T12:34:51;22.10;;;11.80;;
6117;SDS011;3089;48.202;11.510;2024-03-08T12:37:20;20.97;;;11.77;;
6117;SDS011;3089;48.202;11.510;2024-03-08T12:39:50;25.20;;;11.37;;
6117;SDS011;3089;48.202;11.510;2024-03-08T12:42:18;21.53;;;14.10;;
6117;SDS011;3089;48.202;11.510;2024-03-08T12:44:49;19.40;;;10.40;;
6117;SDS011;3089;48.202;11.510;2024-03-08T12:47:17;21.27;;;10.83;;
6117;SDS011;3089;48.202;11.510;2024-03-08T12:49:47;22.03;;;12.80;;
6117;SDS011;3089;48.202;11.510;2024-03-08T12:52:15;18.57;;;10.83;;
6117;SDS011;3089;48.202;11.510;2024-03-08T12:54:44;17.40;;;9.90;;
6117;SDS011;3089;48.202;11.510;2024-03-08T12:57:13;20.30;;;11.37;;
6117;SDS011;3089;48.202;11.510;2024-03-08T12:59:42;20.00;;;9.60;;
6117;SDS011;3089;48.202;11.510;2024-03-08T13:02:12;18.67;;;10.03;;
6117;SDS011;3089;48.202;11.510;2024-03-08T13:04:43;16.20;;;9.07;;
6117;SDS011;3089;48.202;11.510;2024-03-08T13:07:11;20.30;;;10.87;;
6117;SDS011;3089;48.202;11.510;2024-03-08T13:09:43;19.87;;;11.97;;
6117;SDS011;3089;48.202;11.510;2024-03-08T13:12:12;22.10;;;10.43;;
6117;SDS011;3089;48.202;11.510;2024-03-08T13:14:41;22.00;;;10.30;;
6117;SDS011;3089;48.202;11.510;2024-03-08T13:19:49;20.50;;;11.68;;
6117;SDS011;3089;48.202;11.510;2024-03-08T13:22:17;18.17;;;10.20;;
6117;SDS011;3089;48.202;11.510;2024-03-08T13:24:49;16.27;;;9.37;;
6117;SDS011;3089;48.202;11.510;2024-03-08T13:27:19;19.70;;;10.70;;
6117;SDS011;3089;48.202;11.510;2024-03-08T13:29:48;19.27;;;11.60;;
6117;SDS011;3089;48.202;11.510;2024-03-08T13:32:17;19.70;;;9.33;;
6117;SDS011;3089;48.202;11.510;2024-03-08T13:34:46;17.63;;;9.00;;
6117;SDS011;3089;48.202;11.510;2024-03-08T13:37:17;18.67;;;11.03;;
6117;SDS011;3089;48.202;11.510;2024-03-08T13:39:46;21.40;;;11.90;;
6117;SDS011;3089;48.202;11.510;2024-03-08T13:42:14;17.30;;;9.40;;
6117;SDS011;3089;48.202;11.510;2024-03-08T13:44:43;18.10;;;10.13;;
6117;SDS011;3089;48.202;11.510;2024-03-08T13:47:13;16.37;;;10.30;;
6117;SDS011;3089;48.202;11.510;2024-03-08T13:49:41;17.47;;;10.47;;
6117;SDS011;3089;48.202;11.510;2024-03-08T13:52:11;16.13;;;9.57;;
6117;SDS011;3089;48.202;11.510;2024-03-08T13:54:43;19.70;;;11.57;;
6117;SDS011;3089;48.202;11.510;2024-03-08T13:57:11;16.43;;;9.17;;
6117;SDS011;3089;48.202;11.510;2024-03-08T13:59:39;16.60;;;9.90;;
6117;SDS011;3089;48.202;11.510;2024-03-08T14:02:08;18.50;;;9.90;;
6117;SDS011;3089;48.202;11.510;2024-03-08T14:04:40;16.00;;;9.00;;
6117;SDS011;3089;48.202;11.510;2024-03-08T14:07:11;20.37;;;13.00;;
6117;SDS011;3089;48.202;11.510;2024-03-08T14:09:40;20.43;;;11.03;;
6117;SDS011;3089;48.202;11.510;2024-03-08T14:12:09;16.57;;;10.27;;
6117;SDS011;3089;48.202;11.510;2024-03-08T14:14:38;16.10;;;8.97;;
6117;SDS011;3089;48.202;11.510;2024-03-08T14:17:06;16.57;;;10.07;;
6117;SDS011;3089;48.202;11.510;2024-03-08T14:19:36;18.20;;;9.17;;
6117;SDS011;3089;48.202;11.510;2024-03-08T14:22:05;17.60;;;9.50;;
6117;SDS011;3089;48.202;11.510;2024-03-08T14:24:38;14.67;;;8.60;;
6117;SDS011;3089;48.202;11.510;2024-03-08T14:27:06;17.90;;;11.00;;
6117;SDS011;3089;48.202;11.510;2024-03-08T14:29:37;16.23;;;9.13;;
6117;SDS011;3089;48.202;11.510;2024-03-08T14:32:05;16.90;;;10.90;;
6117;SDS011;3089;48.202;11.510;2024-03-08T14:34:34;15.33;;;9.13;;
6117;SDS011;3089;48.202;11.510;2024-03-08T14:37:03;16.07;;;9.70;;
6117;SDS011;3089;48.202;11.510;2024-03-08T14:39:34;16.40;;;9.53;;
6117;SDS011;3089;48.202;11.510;2024-03-08T14:42:05;18.47;;;10.57;;
6117;SDS011;3089;48.202;11.510;2024-03-08T14:44:35;17.17;;;8.90;;
6117;SDS011;3089;48.202;11.510;2024-03-08T14:47:05;13.17;;;8.07;;
6117;SDS011;3089;48.202;11.510;2024-03-08T14:49:34;17.10;;;8.70;;
6117;SDS011;3089;48.202;11.510;2024-03-08T14:52:04;15.50;;;9.30;;
6117;SDS011;3089;48.202;11.510;2024-03-08T14:54:53;14.60;;;8.73;;
6117;SDS011;3089;48.202;11.510;2024-03-08T14:57:23;15.63;;;8.87;;